Terminal Aerodrome Forecast
Issued by NWS

Home | Current Version | Previous Version | Text Only | Print | Product List | Glossary On
Versions: 1 2 3 4 5 6 7 8 9 10 11 12 13 14 15 16
000
FTUS41 KPHI 011700 RRA
TAFMIV
TAF
KMIV 011750Z 0118/0218 26004KT P6SM BKN050
     FM020400 VRB03KT 3SM -SN BKN020
      TEMPO 0206/0208 2SM -FZRAPL BKN009
     FM020800 14009KT 2SM RA BKN009
     FM021400 25008KT 3SM -RA BKN009=

USA.gov is the U.S. government's official web portal to all federal, state and local government web resources and services.